Time;durP1;ratioP1;P1;durP2;ratioP2;P2;SDS_P1;SDS_P2;PMS_P1;PMS_P2;Temp;Humidity;BMP_temperature;BMP_pressure;BME280_temperature;BME280_humidity;BME280_pressure;Samples;Min_cycle;Max_cycle;Signal;HPM_P1;HPM_P2
2021/10/06 00:03:32;;;;;;;4.37;3.65;;;;;;;17.13;97.89;99860.53;2960758;79;20979;-60
2021/10/06 00:07:35;;;;;;;4.20;3.80;;;;;;;17.09;95.06;99836.36;2960467;80;21082;-60
2021/10/06 00:11:37;;;;;;;3.55;2.58;;;;;;;16.90;94.11;99845.22;2960351;80;21078;-60
2021/10/06 00:15:45;;;;;;;3.60;2.33;;;;;;;16.68;94.26;99823.50;2959890;80;20971;-60
2021/10/06 00:19:46;;;;;;;3.40;2.27;;;;;;;16.50;94.71;99845.75;2960332;80;20980;-59
2021/10/06 00:23:48;;;;;;;2.50;2.17;;;;;;;16.30;95.50;99838.12;2960623;80;20995;-60
2021/10/06 00:27:50;;;;;;;2.72;2.40;;;;;;;16.21;96.31;99854.80;2944156;80;20993;-60
2021/10/06 00:31:53;;;;;;;3.37;2.33;;;;;;;16.11;96.53;99857.68;2919948;80;21076;-60
2021/10/06 00:35:56;;;;;;;3.70;3.33;;;;;;;16.06;97.39;99865.39;2920183;81;21040;-62
2021/10/06 00:39:57;;;;;;;3.83;2.10;;;;;;;16.08;97.59;99862.55;2920346;81;21004;-61
2021/10/06 00:43:59;;;;;;;4.65;2.72;;;;;;;16.05;97.61;99867.73;2920381;81;20965;-60
2021/10/06 00:48:01;;;;;;;3.50;2.62;;;;;;;16.03;97.99;99876.47;2920095;81;20961;-61
2021/10/06 00:52:03;;;;;;;3.92;3.02;;;;;;;15.97;98.03;99882.00;2920416;81;21052;-61
2021/10/06 00:56:12;;;;;;;3.52;3.22;;;;;;;15.93;98.50;99876.66;2920262;81;21000;-60
2021/10/06 01:00:15;;;;;;;2.90;2.58;;;;;;;15.91;99.09;99876.48;2919897;81;20937;-61
2021/10/06 01:04:17;;;;;;;3.12;2.70;;;;;;;15.93;99.46;99877.18;2920571;81;20984;-60
2021/10/06 01:08:19;;;;;;;5.58;4.05;;;;;;;15.99;99.65;99867.09;2920558;81;21072;-60
2021/10/06 01:12:51;;;;;;;4.85;4.28;;;;;;;16.02;99.81;99872.11;2920375;81;21024;-60
2021/10/06 01:16:55;;;;;;;3.20;2.90;;;;;;;16.05;99.57;99878.47;2919866;81;21008;-60
2021/10/06 01:21:12;;;;;;;4.78;3.37;;;;;;;16.06;99.54;99873.44;2920138;81;21024;-60
2021/10/06 01:25:16;;;;;;;3.90;3.30;;;;;;;16.13;99.19;99882.48;2920172;81;20969;-59
2021/10/06 01:29:18;;;;;;;4.28;3.50;;;;;;;16.30;99.50;99885.09;2946064;80;21083;-61
2021/10/06 01:33:22;;;;;;;5.17;3.75;;;;;;;16.42;98.93;99895.80;2960631;80;21539;-61
2021/10/06 01:37:24;;;;;;;6.55;4.20;;;;;;;16.54;99.11;99897.59;2960613;80;21011;-60
2021/10/06 01:41:31;;;;;;;5.58;3.75;;;;;;;16.70;98.45;99891.33;2960454;80;20975;-60
2021/10/06 01:45:42;;;;;;;3.37;3.08;;;;;;;16.83;97.85;99884.53;2960104;78;20983;-60
2021/10/06 01:49:46;;;;;;;4.17;3.62;;;;;;;16.91;96.80;99892.55;2960516;80;21019;-62
2021/10/06 01:54:00;;;;;;;6.78;3.70;;;;;;;17.00;96.61;99904.13;2960147;80;21079;-61
2021/10/06 02:02:54;;;;;;;5.70;4.12;;;;;;;17.03;96.13;99913.16;2954498;79;20998;-60
2021/10/06 02:06:55;;;;;;;4.12;3.25;;;;;;;17.10;96.35;99917.33;2960248;80;20983;-61
2021/10/06 02:16:18;;;;;;;3.98;3.58;;;;;;;17.16;96.03;99921.98;2960576;77;20996;-60
2021/10/06 02:20:22;;;;;;;5.78;4.03;;;;;;;17.28;95.97;99929.94;2960379;79;21014;-60
2021/10/06 02:24:53;;;;;;;5.62;4.78;;;;;;;17.35;94.88;99929.25;2960151;80;20917;-59
2021/10/06 02:28:55;;;;;;;5.47;4.92;;;;;;;17.36;94.80;99926.89;2942617;80;20977;-59
2021/10/06 02:32:58;;;;;;;4.60;4.20;;;;;;;17.43;94.69;99922.45;2920280;80;21001;-61
2021/10/06 02:37:07;;;;;;;8.18;5.65;;;;;;;17.40;93.87;99914.75;2919912;81;21012;-63
2021/10/06 02:41:08;;;;;;;6.42;5.70;;;;;;;17.39;93.26;99922.48;2920382;81;20937;-61
2021/10/06 02:45:19;;;;;;;5.17;4.45;;;;;;;17.25;92.93;99926.27;2919661;81;21045;-62
2021/10/06 02:49:22;;;;;;;5.20;3.80;;;;;;;17.23;93.15;99925.62;2919942;80;20973;-60
2021/10/06 02:53:26;;;;;;;4.67;3.83;;;;;;;17.08;93.15;99928.23;2920091;80;20953;-60
2021/10/06 02:57:28;;;;;;;6.37;4.08;;;;;;;17.11;93.43;99923.03;2920275;81;20961;-60
2021/10/06 03:01:30;;;;;;;4.10;2.90;;;;;;;17.11;93.17;99933.25;2892389;80;21021;-61
2021/10/06 03:05:31;;;;;;;4.12;3.50;;;;;;;17.10;92.24;99938.30;2849205;81;21016;-61
2021/10/06 03:13:43;;;;;;;6.47;4.17;;;;;;;16.86;93.05;99948.63;2817765;79;70107;-83
2021/10/06 03:17:45;;;;;;;4.92;4.17;;;;;;;16.79;93.22;99955.73;2801780;84;21559;-82
2021/10/06 03:21:46;;;;;;;4.00;3.10;;;;;;;16.74;94.00;99955.42;2838817;84;21079;-83
2021/10/06 03:25:48;;;;;;;4.37;3.98;;;;;;;16.75;93.76;99954.41;2840368;84;21075;-82
2021/10/06 03:29:50;;;;;;;14.28;4.17;;;;;;;16.59;93.50;99957.98;2824337;84;21052;-82
2021/10/06 03:33:52;;;;;;;4.30;3.90;;;;;;;16.48;94.59;99958.70;2840522;84;21251;-83
2021/10/06 03:37:54;;;;;;;9.48;3.65;;;;;;;16.51;94.86;99971.77;2840495;84;21271;-81
2021/10/06 03:41:55;;;;;;;6.87;5.90;;;;;;;16.38;95.41;99997.81;2822792;84;21040;-85
2021/10/06 03:45:57;;;;;;;6.83;4.85;;;;;;;16.35;96.63;99995.48;2840233;84;21068;-83
2021/10/06 03:49:58;;;;;;;13.15;7.15;;;;;;;16.53;97.05;100003.83;2839879;84;21028;-83
2021/10/06 03:54:00;;;;;;;11.90;8.35;;;;;;;16.64;95.81;99997.25;2838863;84;21004;-85
2021/10/06 03:58:02;;;;;;;13.40;8.13;;;;;;;16.66;95.72;100000.08;2838266;84;21051;-80
2021/10/06 04:02:04;;;;;;;6.60;4.95;;;;;;;16.72;95.19;100011.16;2820573;84;21035;-82
2021/10/06 04:06:06;;;;;;;7.40;5.25;;;;;;;16.72;94.31;100018.70;2801568;84;21032;-81
2021/10/06 04:10:09;;;;;;;5.58;5.03;;;;;;;16.74;94.79;100017.20;2799393;82;21047;-76
2021/10/06 04:14:10;;;;;;;8.38;5.15;;;;;;;16.83;94.55;100021.52;2863375;80;20992;-80
2021/10/06 04:18:12;;;;;;;5.62;5.03;;;;;;;16.73;93.71;100008.28;2846579;83;21004;-77
2021/10/06 04:22:13;;;;;;;6.03;5.42;;;;;;;16.53;94.36;100030.16;2845891;81;20980;-77
2021/10/06 04:26:15;;;;;;;6.65;4.83;;;;;;;16.34;95.68;100038.58;2856413;80;20982;-81
2021/10/06 04:30:17;;;;;;;8.88;6.85;;;;;;;16.10;97.21;100045.13;2851370;83;20927;-79
2021/10/06 04:34:18;;;;;;;6.90;6.20;;;;;;;16.07;98.62;100037.94;2851196;83;21002;-76
2021/10/06 04:38:20;;;;;;;6.35;5.45;;;;;;;16.16;98.83;100035.58;2851331;82;21061;-78
2021/10/06 04:54:53;;;;;;;7.80;6.83;;;;;;;16.15;97.72;100054.55;2799678;83;21017;-56
2021/10/06 04:59:10;;;;;;;10.70;6.85;;;;;;;16.07;98.01;100058.06;2850258;80;20964;-57
2021/10/06 05:03:14;;;;;;;11.97;7.12;;;;;;;16.04;98.49;100064.59;2800594;81;20966;-57
2021/10/06 05:07:23;;;;;;;14.10;6.90;;;;;;;15.91;98.88;100073.63;2858387;83;21023;-58
2021/10/06 05:11:25;;;;;;;7.42;6.62;;;;;;;15.79;99.82;100075.27;2800462;85;20998;-58
2021/10/06 05:15:31;;;;;;;6.53;5.90;;;;;;;15.85;100.00;100078.62;2836116;83;21030;-57
2021/10/06 05:19:33;;;;;;;13.30;9.40;;;;;;;15.95;100.00;100079.84;2858953;83;20952;-56
2021/10/06 05:24:01;;;;;;;9.58;7.45;;;;;;;15.97;100.00;100085.05;2850522;82;21042;-58
2021/10/06 05:28:04;;;;;;;10.90;8.58;;;;;;;16.11;100.00;100092.45;2800515;84;20990;-57
2021/10/06 05:32:27;;;;;;;9.90;8.73;;;;;;;16.32;100.00;100091.11;2858297;83;21038;-56
2021/10/06 05:36:29;;;;;;;9.08;7.58;;;;;;;16.46;99.91;100092.75;2857928;80;20975;-57
2021/10/06 05:40:31;;;;;;;11.22;8.83;;;;;;;16.63;99.21;100082.33;2800642;85;20975;-58
2021/10/06 05:52:50;;;;;;;9.45;8.48;;;;;;;16.87;97.31;100101.26;2901794;80;21043;-75
2021/10/06 05:56:52;;;;;;;13.93;7.97;;;;;;;16.95;97.44;100114.66;2902212;80;21046;-77
2021/10/06 06:00:54;;;;;;;10.65;8.58;;;;;;;16.99;96.47;100116.02;2902459;80;21026;-78
2021/10/06 06:04:55;;;;;;;13.60;8.93;;;;;;;17.06;96.51;100128.26;2859951;82;21049;-77
2021/10/06 06:08:57;;;;;;;16.70;10.18;;;;;;;17.16;96.78;100138.32;2859965;82;21086;-77
2021/10/06 06:12:59;;;;;;;13.80;10.53;;;;;;;17.16;95.62;100142.35;2859986;83;21014;-79
2021/10/06 06:17:01;;;;;;;19.87;15.38;;;;;;;17.07;94.90;100150.94;2859860;83;21014;-77
2021/10/06 06:21:03;;;;;;;39.65;27.20;;;;;;;16.93;94.96;100165.04;2860080;80;20978;-80
2021/10/06 06:25:07;;;;;;;20.48;13.32;;;;;;;16.78;95.29;100176.98;2860158;82;21049;-79
2021/10/06 06:29:09;;;;;;;19.23;12.53;;;;;;;16.51;96.15;100187.07;2859915;82;21010;-76
2021/10/06 06:33:11;;;;;;;14.90;10.80;;;;;;;16.34;97.75;100189.73;2877697;81;20983;-79
2021/10/06 06:37:13;;;;;;;14.63;10.32;;;;;;;16.20;98.54;100195.23;2839840;83;21008;-79
2021/10/06 06:41:15;;;;;;;13.55;10.98;;;;;;;16.09;99.73;100192.36;2839930;83;21011;-77
2021/10/06 06:45:17;;;;;;;11.90;10.58;;;;;;;16.06;100.00;100187.84;2839304;84;20987;-77
2021/10/06 06:49:19;;;;;;;10.53;8.43;;;;;;;16.09;100.00;100195.56;2838900;82;20999;-76
2021/10/06 06:53:22;;;;;;;15.70;10.30;;;;;;;16.19;100.00;100198.09;2829163;81;21290;-76
2021/10/06 06:57:25;;;;;;;10.03;8.85;;;;;;;16.33;100.00;100201.48;2814651;80;21078;-76
2021/10/06 07:01:26;;;;;;;9.88;7.45;;;;;;;16.40;100.00;100203.83;2810816;82;20964;-75
2021/10/06 07:05:28;;;;;;;21.57;9.68;;;;;;;16.53;100.00;100205.19;2807807;84;21051;-76
2021/10/06 07:09:31;;;;;;;10.48;8.65;;;;;;;16.59;100.00;100209.89;2858473;82;20976;-77
2021/10/06 07:13:33;;;;;;;12.10;8.75;;;;;;;16.70;100.00;100216.77;2858648;80;21007;-79
2021/10/06 07:17:34;;;;;;;13.65;9.15;;;;;;;16.84;100.00;100225.50;2858621;82;21046;-78
2021/10/06 07:21:36;;;;;;;9.28;7.40;;;;;;;17.08;100.00;100227.00;2858882;80;21026;-79
2021/10/06 07:25:39;;;;;;;8.60;7.70;;;;;;;17.32;100.00;100232.84;2858481;82;21014;-76
2021/10/06 07:29:41;;;;;;;7.25;5.87;;;;;;;17.63;100.00;100228.06;2858619;82;21073;-78
2021/10/06 07:33:44;;;;;;;8.70;6.58;;;;;;;17.91;98.86;100236.20;2858730;82;21340;-77
2021/10/06 07:37:46;;;;;;;6.40;5.78;;;;;;;18.01;96.22;100244.88;2858851;80;21085;-77
2021/10/06 07:41:48;;;;;;;8.88;6.97;;;;;;;18.10;95.89;100244.36;2858780;81;20980;-77
2021/10/06 07:54:33;;;;;;;5.25;4.65;;;;;;;18.39;92.73;100249.59;2953036;78;21023;-57
2021/10/06 07:58:35;;;;;;;4.87;3.87;;;;;;;18.62;93.66;100251.45;2953428;80;20980;-58
2021/10/06 08:02:39;;;;;;;5.28;4.17;;;;;;;18.82;91.54;100254.48;2953624;80;21270;-57
2021/10/06 08:06:41;;;;;;;5.40;4.70;;;;;;;18.98;90.33;100259.77;3031968;78;20946;-58
2021/10/06 08:11:06;;;;;;;5.03;3.52;;;;;;;19.10;88.20;100252.08;3031191;78;20993;-56
2021/10/06 08:15:10;;;;;;;4.62;3.33;;;;;;;19.11;84.63;100261.02;3031731;78;21034;-57
2021/10/06 08:19:11;;;;;;;4.95;3.65;;;;;;;18.98;82.24;100266.52;3031725;75;20954;-57
2021/10/06 08:23:17;;;;;;;3.42;3.15;;;;;;;18.76;83.11;100264.13;3031428;75;20958;-57
2021/10/06 08:27:19;;;;;;;3.77;3.15;;;;;;;18.79;85.14;100261.09;3031917;78;20953;-56
2021/10/06 08:31:34;;;;;;;3.27;2.87;;;;;;;18.93;84.93;100271.59;3031648;78;21001;-57
2021/10/06 08:35:39;;;;;;;5.78;4.58;;;;;;;18.82;81.91;100271.50;3031685;78;20938;-56
2021/10/06 08:39:41;;;;;;;3.75;3.45;;;;;;;18.66;82.82;100279.18;3031799;75;20966;-57
2021/10/06 08:43:55;;;;;;;4.08;3.58;;;;;;;18.59;82.31;100283.62;3031716;78;20950;-56
2021/10/06 08:47:57;;;;;;;4.40;3.40;;;;;;;18.50;82.33;100284.70;3032180;78;21025;-57
2021/10/06 08:51:59;;;;;;;4.72;3.35;;;;;;;18.48;83.85;100292.13;2996593;78;21028;-56
2021/10/06 08:56:01;;;;;;;5.60;3.72;;;;;;;18.56;83.53;100305.53;3009945;78;20966;-56
2021/10/06 09:00:06;;;;;;;3.02;2.80;;;;;;;18.66;83.06;100316.89;3009728;79;21008;-57
2021/10/06 09:04:08;;;;;;;5.08;2.77;;;;;;;18.79;82.26;100314.13;3010068;79;21004;-59
2021/10/06 09:08:11;;;;;;;2.60;2.27;;;;;;;18.73;80.23;100323.77;3009563;79;20988;-56
2021/10/06 09:12:29;;;;;;;2.22;2.02;;;;;;;18.59;79.32;100337.49;3009626;79;20962;-57
2021/10/06 09:16:30;;;;;;;5.05;2.20;;;;;;;18.43;78.89;100349.70;3009609;79;20957;-56
2021/10/06 09:20:48;;;;;;;3.33;2.50;;;;;;;18.26;78.05;100353.81;3009558;79;20973;-57
2021/10/06 09:25:37;;;;;;;2.37;1.87;;;;;;;18.08;78.58;100349.53;3010106;79;21020;-56
2021/10/06 09:29:55;;;;;;;2.52;2.10;;;;;;;17.95;79.02;100361.30;3009874;79;21211;-57
2021/10/06 09:33:59;;;;;;;4.15;2.72;;;;;;;18.00;79.56;100358.92;3009779;79;21020;-57
2021/10/06 09:38:02;;;;;;;5.30;2.40;;;;;;;18.03;80.46;100367.20;3010181;79;20988;-57
2021/10/06 09:42:03;;;;;;;2.60;1.95;;;;;;;18.09;79.73;100379.47;3009863;78;20988;-57
2021/10/06 09:46:09;;;;;;;4.30;2.90;;;;;;;18.10;80.03;100370.38;2987677;79;21001;-57
2021/10/06 09:50:16;;;;;;;2.58;2.08;;;;;;;18.11;80.26;100368.51;3009793;79;20969;-57
2021/10/06 09:54:19;;;;;;;2.22;1.80;;;;;;;18.15;79.90;100371.70;3003302;79;21004;-58
2021/10/06 09:58:21;;;;;;;3.75;2.22;;;;;;;18.24;80.20;100377.38;3010119;79;20952;-57
2021/10/06 10:02:25;;;;;;;2.67;1.70;;;;;;;18.33;80.53;100375.49;3009923;79;20913;-57
2021/10/06 10:06:27;;;;;;;3.67;1.15;;;;;;;18.36;79.83;100373.80;3010294;79;20997;-56
2021/10/06 10:10:29;;;;;;;3.90;1.65;;;;;;;18.33;79.92;100381.73;3009810;79;20980;-56
2021/10/06 10:14:32;;;;;;;4.83;1.77;;;;;;;18.44;80.12;100382.34;3009334;79;20926;-57
2021/10/06 10:18:34;;;;;;;1.92;1.75;;;;;;;18.56;79.39;100374.22;3009966;79;21079;-56
2021/10/06 10:22:43;;;;;;;3.58;1.92;;;;;;;18.57;78.45;100379.94;3009699;79;20958;-56
2021/10/06 10:27:08;;;;;;;2.55;2.17;;;;;;;18.50;78.86;100394.61;3010005;79;20993;-56
2021/10/06 10:31:11;;;;;;;3.30;1.10;;;;;;;18.45;80.21;100399.69;3009905;79;20949;-58
2021/10/06 10:35:17;;;;;;;3.37;1.55;;;;;;;18.46;78.06;100404.06;3009853;78;20961;-58
2021/10/06 10:39:45;;;;;;;0.70;0.70;;;;;;;18.35;78.30;100405.77;3009976;78;20957;-59
2021/10/06 10:44:25;;;;;;;1.77;1.20;;;;;;;18.26;76.89;100415.73;3009888;79;21031;-56
2021/10/06 10:48:58;;;;;;;2.17;1.42;;;;;;;18.20;78.16;100419.13;3008560;79;20989;-57
2021/10/06 10:53:02;;;;;;;1.60;1.40;;;;;;;18.20;77.34;100428.55;3011735;78;21047;-56
2021/10/06 10:57:39;;;;;;;1.22;1.02;;;;;;;18.09;77.47;100426.57;3028371;78;20989;-56
2021/10/06 11:01:45;;;;;;;3.20;1.37;;;;;;;18.04;76.86;100426.75;3028390;78;20968;-58
2021/10/06 11:05:49;;;;;;;1.40;0.82;;;;;;;18.03;78.49;100435.83;3028183;77;21543;-57
2021/10/06 11:09:58;;;;;;;0.95;0.65;;;;;;;18.00;78.11;100436.97;3028331;78;21036;-57
2021/10/06 11:14:27;;;;;;;1.65;1.22;;;;;;;18.00;77.37;100443.70;3028450;78;21024;-56
2021/10/06 11:18:43;;;;;;;1.80;0.90;;;;;;;17.95;76.08;100446.07;3028418;78;21027;-56
2021/10/06 11:22:45;;;;;;;2.45;1.40;;;;;;;17.82;75.84;100449.28;3023182;78;20992;-56
2021/10/06 11:26:48;;;;;;;3.75;1.92;;;;;;;17.71;76.58;100449.12;3028545;78;20948;-57
2021/10/06 11:31:07;;;;;;;2.80;1.07;;;;;;;17.64;77.33;100454.82;3028643;78;20989;-56
2021/10/06 11:35:09;;;;;;;3.10;1.40;;;;;;;17.48;77.10;100455.15;3028447;78;21015;-56
2021/10/06 11:39:26;;;;;;;2.05;1.40;;;;;;;17.24;78.27;100459.50;3028296;78;20977;-58
2021/10/06 11:43:50;;;;;;;2.22;0.98;;;;;;;17.03;80.35;100453.75;2997227;78;20995;-57
2021/10/06 11:47:52;;;;;;;9.90;5.22;;;;;;;16.59;83.57;100468.16;3027795;78;20956;-56
2021/10/06 11:51:54;;;;;;;17.52;10.05;;;;;;;16.18;85.42;100469.62;3028316;78;20984;-56
2021/10/06 11:55:55;;;;;;;15.40;11.00;;;;;;;15.88;88.20;100477.59;3016359;78;21017;-57
2021/10/06 12:00:16;;;;;;;8.78;4.20;;;;;;;15.68;89.15;100481.31;3013151;79;20982;-58
2021/10/06 12:04:21;;;;;;;5.20;3.37;;;;;;;15.52;90.59;100491.37;3013359;79;21016;-56
2021/10/06 12:08:34;;;;;;;6.87;3.60;;;;;;;15.36;91.75;100486.70;3012983;79;20986;-57
2021/10/06 12:12:38;;;;;;;6.70;4.30;;;;;;;15.28;93.42;100491.48;3013232;79;21136;-56
2021/10/06 12:16:40;;;;;;;6.17;3.42;;;;;;;15.30;95.07;100490.48;3013294;79;21009;-56
2021/10/06 12:20:46;;;;;;;3.10;2.80;;;;;;;15.34;96.53;100499.94;3012890;78;20938;-56
2021/10/06 12:24:48;;;;;;;5.87;3.17;;;;;;;15.34;97.07;100502.61;3012822;79;21045;-56
2021/10/06 12:28:56;;;;;;;5.72;3.27;;;;;;;15.26;97.23;100502.86;3013113;79;21017;-57
2021/10/06 12:33:07;;;;;;;3.52;2.40;;;;;;;15.30;97.66;100518.63;3011605;79;21272;-57
2021/10/06 12:37:14;;;;;;;3.62;2.25;;;;;;;15.32;96.99;100513.47;3013219;79;21002;-55
2021/10/06 12:41:17;;;;;;;3.27;1.57;;;;;;;15.35;96.75;100519.04;3013198;79;20931;-56
2021/10/06 12:45:19;;;;;;;3.42;1.72;;;;;;;15.45;96.96;100521.14;3013083;79;21235;-55
2021/10/06 12:49:26;;;;;;;5.92;3.25;;;;;;;15.59;94.99;100514.91;3013162;79;20970;-56
2021/10/06 12:53:28;;;;;;;4.17;3.02;;;;;;;15.79;94.40;100515.09;3014404;78;21024;-56
2021/10/06 12:57:30;;;;;;;4.03;2.30;;;;;;;15.96;94.84;100520.63;3028428;78;21011;-56
2021/10/06 13:01:32;;;;;;;3.80;2.52;;;;;;;16.14;94.81;100519.25;3028571;78;21024;-60
2021/10/06 13:05:58;;;;;;;2.85;2.12;;;;;;;16.28;93.56;100523.19;3028688;78;20988;-60
2021/10/06 13:10:00;;;;;;;3.20;2.02;;;;;;;16.46;93.93;100523.16;3028708;78;21019;-62
2021/10/06 13:14:19;;;;;;;2.87;2.15;;;;;;;16.74;93.30;100526.16;3028617;78;20949;-61
2021/10/06 13:18:21;;;;;;;6.03;2.77;;;;;;;16.89;92.33;100529.08;3028698;78;20953;-60
2021/10/06 13:22:22;;;;;;;6.17;2.92;;;;;;;17.11;91.63;100536.58;3028608;78;20995;-60
2021/10/06 13:26:24;;;;;;;2.42;1.70;;;;;;;17.25;89.82;100537.79;3029034;78;20956;-60
2021/10/06 13:30:47;;;;;;;4.08;2.15;;;;;;;17.36;88.28;100538.50;3028157;78;20972;-59
2021/10/06 13:34:48;;;;;;;2.27;1.65;;;;;;;17.45;87.09;100542.05;3028839;78;20948;-60
2021/10/06 13:38:52;;;;;;;2.12;1.37;;;;;;;17.48;86.67;100544.41;3028933;78;21015;-60
2021/10/06 13:42:53;;;;;;;3.05;1.92;;;;;;;17.55;86.01;100540.90;3028635;78;21008;-60
2021/10/06 13:46:55;;;;;;;2.42;1.70;;;;;;;17.70;84.78;100540.25;3028646;78;20988;-61
2021/10/06 13:51:03;;;;;;;4.15;1.60;;;;;;;17.76;83.75;100546.30;3028497;78;20969;-61
2021/10/06 13:55:15;;;;;;;5.55;1.70;;;;;;;17.80;83.66;100544.95;3028475;78;20929;-60
2021/10/06 13:59:17;;;;;;;6.40;3.17;;;;;;;17.75;82.49;100547.80;3028295;78;20996;-61
2021/10/06 14:03:18;;;;;;;4.92;2.10;;;;;;;17.78;83.14;100548.31;3028223;78;21027;-60
2021/10/06 14:07:20;;;;;;;6.70;4.00;;;;;;;17.83;80.21;100540.58;3028570;78;20976;-60
2021/10/06 14:11:22;;;;;;;7.97;4.55;;;;;;;17.75;80.22;100532.52;3027969;78;21047;-60
2021/10/06 14:15:25;;;;;;;5.78;4.05;;;;;;;17.73;79.65;100531.84;3028511;78;20960;-60
2021/10/06 14:19:26;;;;;;;8.53;3.55;;;;;;;17.69;79.84;100531.84;3028720;78;21031;-62
2021/10/06 14:23:34;;;;;;;11.55;6.70;;;;;;;17.68;80.41;100543.09;3028542;78;21039;-60
2021/10/06 14:27:36;;;;;;;14.13;8.20;;;;;;;17.58;80.27;100544.27;3028572;78;20971;-60
2021/10/06 14:31:58;;;;;;;10.05;6.42;;;;;;;17.53;80.12;100548.78;3028382;78;20965;-61
2021/10/06 14:36:00;;;;;;;33.90;19.52;;;;;;;17.43;81.37;100556.17;3028303;78;20968;-63
2021/10/06 14:40:30;;;;;;;34.67;20.50;;;;;;;17.40;81.55;100560.02;3028721;78;20961;-64
2021/10/06 14:44:32;;;;;;;23.10;14.47;;;;;;;17.37;82.00;100557.14;3027933;78;20977;-60
2021/10/06 14:48:34;;;;;;;16.02;10.78;;;;;;;17.41;81.21;100559.01;3028440;78;20968;-61
2021/10/06 14:52:36;;;;;;;6.75;5.83;;;;;;;17.50;81.24;100556.70;3028384;78;20953;-61
2021/10/06 14:56:39;;;;;;;4.65;3.30;;;;;;;17.51;80.93;100567.79;3027970;78;21278;-61
2021/10/06 15:01:06;;;;;;;5.37;1.57;;;;;;;17.49;81.94;100573.84;3028286;78;20932;-61
2021/10/06 15:05:09;;;;;;;1.75;1.22;;;;;;;17.51;81.24;100581.23;3028455;78;20999;-63
2021/10/06 15:09:14;;;;;;;2.47;1.50;;;;;;;17.56;80.96;100586.10;3028302;78;20999;-63
2021/10/06 15:13:15;;;;;;;4.73;1.43;;;;;;;17.63;80.44;100583.59;3028588;78;20932;-61
2021/10/06 15:17:17;;;;;;;2.00;1.40;;;;;;;17.63;80.21;100591.67;3028093;78;20912;-61
2021/10/06 15:21:19;;;;;;;3.75;1.82;;;;;;;17.67;80.61;100588.98;3028421;78;21216;-60
2021/10/06 15:25:21;;;;;;;4.25;1.80;;;;;;;17.70;79.64;100590.02;3028350;78;20955;-62
2021/10/06 15:29:23;;;;;;;3.15;1.45;;;;;;;17.60;79.27;100589.31;3014234;78;20983;-60
2021/10/06 15:33:50;;;;;;;1.72;1.47;;;;;;;17.46;79.44;100590.80;2998387;79;20976;-61
2021/10/06 15:37:51;;;;;;;;;;;;;;;17.38;80.40;100592.95;3001242;78;20972;-61
2021/10/06 15:42:12;;;;;;;3.22;1.90;;;;;;;17.33;80.68;100592.09;3043600;78;20084;-61
2021/10/06 15:46:14;;;;;;;4.83;1.90;;;;;;;17.26;81.38;100591.89;3065668;77;20998;-62
2021/10/06 15:50:17;;;;;;;6.28;2.75;;;;;;;17.18;81.38;100585.64;3060990;78;21030;-61
2021/10/06 15:54:31;;;;;;;4.60;4.25;;;;;;;16.96;82.55;100581.15;3056543;77;20973;-61
2021/10/06 15:58:33;;;;;;;3.17;2.87;;;;;;;16.73;83.45;100581.70;2991025;79;20969;-60
2021/10/06 16:02:34;;;;;;;4.25;3.08;;;;;;;16.74;84.55;100589.28;2991055;78;20989;-61
2021/10/06 16:06:38;;;;;;;6.30;3.67;;;;;;;16.84;84.50;100598.91;2990364;79;38832;-61
2021/10/06 16:10:42;;;;;;;4.47;2.40;;;;;;;16.97;84.78;100607.88;2991015;76;20980;-60
2021/10/06 16:14:46;;;;;;;4.35;2.50;;;;;;;16.97;84.43;100615.08;2977045;78;21003;-60
2021/10/06 16:18:49;;;;;;;3.72;2.62;;;;;;;16.88;84.81;100623.59;2951931;80;21015;-61
2021/10/06 16:22:50;;;;;;;3.05;2.75;;;;;;;16.78;85.32;100625.05;2984524;79;20995;-60
2021/10/06 16:27:00;;;;;;;4.20;2.85;;;;;;;16.81;85.98;100629.27;2999514;79;20937;-60
2021/10/06 16:31:07;;;;;;;5.37;4.17;;;;;;;16.93;85.55;100632.04;2993589;79;21027;-60
2021/10/06 16:35:20;;;;;;;11.25;5.20;;;;;;;17.01;84.78;100639.34;2953819;80;20975;-64
2021/10/06 16:39:24;;;;;;;11.35;5.05;;;;;;;17.02;83.77;100636.14;3032178;75;20984;-61
2021/10/06 16:43:26;;;;;;;8.40;4.65;;;;;;;17.03;83.94;100644.54;3031773;78;20973;-62
2021/10/06 16:48:13;;;;;;;6.58;4.95;;;;;;;17.01;84.13;100638.48;3031724;75;20970;-61
2021/10/06 16:52:15;;;;;;;8.48;5.37;;;;;;;17.06;84.13;100653.13;3032007;78;20943;-61
2021/10/06 16:56:19;;;;;;;8.38;5.87;;;;;;;17.02;83.77;100657.63;3032005;75;20966;-61
2021/10/06 17:00:21;;;;;;;7.30;6.28;;;;;;;17.00;83.64;100664.53;3031896;78;21001;-60
2021/10/06 17:04:23;;;;;;;7.20;6.35;;;;;;;16.93;84.09;100671.00;3032019;78;20962;-61
2021/10/06 17:08:46;;;;;;;8.33;5.53;;;;;;;16.94;84.87;100681.23;3031728;78;20942;-62
2021/10/06 17:12:47;;;;;;;6.90;4.67;;;;;;;16.98;84.21;100683.48;3031657;75;21013;-61
2021/10/06 17:16:49;;;;;;;8.78;5.45;;;;;;;16.99;84.63;100690.55;3031898;75;21001;-60
2021/10/06 17:20:52;;;;;;;6.78;4.47;;;;;;;17.06;84.82;100697.97;3031742;78;21013;-61
2021/10/06 17:24:54;;;;;;;6.58;4.60;;;;;;;17.13;84.38;100698.52;3031858;78;20997;-61
2021/10/06 17:29:03;;;;;;;11.33;7.03;;;;;;;17.12;84.33;100701.38;3031944;78;20938;-59
2021/10/06 17:33:04;;;;;;;10.70;8.48;;;;;;;17.11;83.84;100709.10;3031915;78;20985;-57
2021/10/06 17:37:06;;;;;;;9.23;6.58;;;;;;;16.89;83.61;100707.22;3031812;78;21001;-60
2021/10/06 17:41:18;;;;;;;6.28;4.03;;;;;;;16.59;84.64;100713.88;3031795;78;20950;-60
2021/10/06 17:45:22;;;;;;;6.17;4.92;;;;;;;16.41;85.70;100714.23;3031949;78;20993;-57
2021/10/06 17:49:25;;;;;;;8.25;5.30;;;;;;;16.32;85.73;100715.66;3031605;78;20982;-57
2021/10/06 17:53:36;;;;;;;10.53;5.70;;;;;;;16.16;86.01;100709.64;3031762;78;21341;-57
2021/10/06 17:57:39;;;;;;;12.68;7.22;;;;;;;16.09;87.12;100711.56;3013639;77;20915;-57
2021/10/06 18:01:42;;;;;;;15.70;8.98;;;;;;;16.13;87.78;100712.97;3010193;78;21599;-57
2021/10/06 18:05:44;;;;;;;12.10;9.15;;;;;;;16.25;87.90;100710.05;3009600;79;20997;-56
2021/10/06 18:09:46;;;;;;;11.45;7.03;;;;;;;16.33;87.82;100707.46;3009882;79;21013;-61
2021/10/06 18:13:48;;;;;;;6.10;3.85;;;;;;;16.23;87.32;100704.00;3009894;79;20923;-56
2021/10/06 18:18:15;;;;;;;5.42;4.22;;;;;;;16.19;86.84;100711.50;3009888;78;21247;-59
2021/10/06 18:22:17;;;;;;;7.42;4.47;;;;;;;16.17;86.90;100717.52;3009619;79;20979;-57
2021/10/06 18:26:48;;;;;;;7.55;5.15;;;;;;;16.28;86.99;100725.36;3009982;79;20970;-57
2021/10/06 18:30:55;;;;;;;8.40;4.75;;;;;;;16.34;87.07;100735.99;3007435;79;21043;-58
2021/10/06 18:35:14;;;;;;;9.08;5.10;;;;;;;16.44;87.08;100735.92;2996789;77;21041;-60
2021/10/06 18:39:33;;;;;;;7.42;6.08;;;;;;;16.46;86.62;100737.09;2990849;78;20994;-58
2021/10/06 18:43:40;;;;;;;16.10;7.53;;;;;;;16.27;86.31;100745.63;2973820;79;21017;-57
2021/10/06 18:47:45;;;;;;;16.42;7.67;;;;;;;15.89;87.74;100740.85;2984622;79;21021;-57
2021/10/06 18:52:12;;;;;;;12.68;7.47;;;;;;;15.61;89.54;100736.30;3008424;79;21012;-57
2021/10/06 18:56:22;;;;;;;13.15;8.43;;;;;;;15.45;90.38;100747.66;3018649;75;21068;-60
2021/10/06 19:00:41;;;;;;;11.12;8.68;;;;;;;15.28;91.20;100744.73;2995244;78;21057;-57
2021/10/06 19:04:47;;;;;;;11.38;7.92;;;;;;;15.21;91.98;100751.68;3030007;75;21260;-57
2021/10/06 19:09:08;;;;;;;11.03;8.63;;;;;;;15.18;92.97;100750.63;2997479;78;20974;-57
2021/10/06 19:13:39;;;;;;;9.03;7.10;;;;;;;15.26;93.35;100761.46;3031173;75;20986;-57
2021/10/06 19:17:50;;;;;;;16.02;8.30;;;;;;;15.34;92.99;100762.59;3026374;75;20997;-57
2021/10/06 19:21:55;;;;;;;9.88;7.28;;;;;;;15.44;93.22;100771.94;3025200;75;20962;-57
2021/10/06 19:25:58;;;;;;;13.03;8.78;;;;;;;15.55;92.97;100772.61;3026866;77;20994;-57
2021/10/06 19:30:13;;;;;;;15.45;9.10;;;;;;;15.63;93.03;100774.56;2994070;78;20973;-56
2021/10/06 19:34:35;;;;;;;11.48;7.72;;;;;;;15.85;93.13;100772.48;2977188;77;21036;-57
2021/10/06 19:38:43;;;;;;;11.63;7.33;;;;;;;16.05;91.60;100775.92;2977124;77;20961;-56
2021/10/06 19:43:03;;;;;;;;;;;;;;;;;;;;;
2021/10/06 19:47:03;;;;;;;14.73;10.35;;;;;;;15.93;89.79;100779.83;2904699;77;21029;-58
2021/10/06 19:51:04;;;;;;;12.33;8.63;;;;;;;15.89;90.32;100777.92;2976999;80;21041;-56